Time,TemperatureF,DewpointF,PressureIn,WindDirection,WindDirectionDegrees,WindSpeedMPH,WindSpeedGustMPH,Humidity,HourlyPrecipIn,Conditions,Clouds,dailyrainin,SoftwareType,DateUTC
2013-04-29 00:01:00,69.4,38.3,29.84,North,350,1.0,3.0,32,0.00,,,0.00,WeatherCatV1.15B25,2013-04-29 07:01:00,
2013-04-29 00:06:00,69.2,38.1,29.84,NNW,331,1.0,3.0,32,0.00,,,0.00,WeatherCatV1.15B25,2013-04-29 07:06:00,
2013-04-29 00:11:00,69.1,38.8,29.84,NNW,340,2.0,3.0,33,0.00,,,0.00,WeatherCatV1.15B25,2013-04-29 07:11:00,
2013-04-29 00:16:00,68.9,38.6,29.84,NNW,337,3.0,3.0,33,0.00,,,0.00,WeatherCatV1.15B25,2013-04-29 07:16:00,
2013-04-29 00:21:00,69.2,38.9,29.84,NNW,332,3.0,4.0,33,0.00,,,0.00,WeatherCatV1.15B25,2013-04-29 07:21:00,
2013-04-29 00:26:00,69.6,39.2,29.84,NNW,337,3.0,4.0,33,0.00,,,0.00,WeatherCatV1.15B25,2013-04-29 07:26:00,
2013-04-29 00:31:00,69.8,40.2,29.84,NW,324,2.0,4.0,34,0.00,,,0.00,WeatherCatV1.15B25,2013-04-29 07:31:00,
2013-04-29 00:36:00,69.9,41.7,29.84,NNW,340,4.0,4.0,36,0.00,,,0.00,WeatherCatV1.15B25,2013-04-29 07:36:00,
2013-04-29 00:41:00,69.8,42.3,29.84,NNW,339,3.0,4.0,37,0.00,,,0.00,WeatherCatV1.15B25,2013-04-29 07:41:00,
2013-04-29 00:46:00,69.5,42.8,29.84,NNW,339,3.0,3.0,38,0.00,,,0.00,WeatherCatV1.15B25,2013-04-29 07:46:00,
2013-04-29 00:51:00,69.4,42.7,29.84,NNW,335,3.0,4.0,38,0.00,,,0.00,WeatherCatV1.15B25,2013-04-29 07:51:00,
2013-04-29 00:56:00,69.7,42.9,29.84,NNW,328,3.0,3.0,38,0.00,,,0.00,WeatherCatV1.15B25,2013-04-29 07:56:00,
2013-04-29 01:01:00,69.8,43.0,29.84,NNW,333,3.0,4.0,38,0.00,,,0.00,WeatherCatV1.15B25,2013-04-29 08:01:00,
2013-04-29 01:06:00,70.0,43.2,29.84,NNW,334,2.0,4.0,38,0.00,,,0.00,WeatherCatV1.15B25,2013-04-29 08:06:00,
2013-04-29 01:11:00,70.2,43.4,29.84,NNW,335,3.0,4.0,38,0.00,,,0.00,WeatherCatV1.15B25,2013-04-29 08:11:00,
2013-04-29 01:16:00,70.3,44.2,29.84,NNW,329,1.0,3.0,39,0.00,,,0.00,WeatherCatV1.15B25,2013-04-29 08:16:00,
2013-04-29 01:21:00,70.2,44.1,29.84,NNW,336,0.0,2.0,39,0.00,,,0.00,WeatherCatV1.15B25,2013-04-29 08:21:00,
2013-04-29 01:26:00,70.0,43.9,29.84,NNW,334,0.0,2.0,39,0.00,,,0.00,WeatherCatV1.15B25,2013-04-29 08:26:00,
2013-04-29 01:31:00,69.9,43.8,29.84,NNW,335,1.0,2.0,39,0.00,,,0.00,WeatherCatV1.15B25,2013-04-29 08:31:00,
2013-04-29 01:36:00,69.8,43.7,29.84,NNW,329,0.0,2.0,39,0.00,,,0.00,WeatherCatV1.15B25,2013-04-29 08:36:00,
2013-04-29 01:41:00,69.9,44.5,29.84,NNW,336,2.0,2.0,40,0.00,,,0.00,WeatherCatV1.15B25,2013-04-29 08:41:00,
2013-04-29 01:46:00,70.2,44.7,29.83,NNW,336,2.0,2.0,40,0.00,,,0.00,WeatherCatV1.15B25,2013-04-29 08:46:00,
2013-04-29 01:51:00,70.4,44.9,29.83,NNW,334,3.0,3.0,40,0.00,,,0.00,WeatherCatV1.15B25,2013-04-29 08:51:00,
2013-04-29 01:56:00,70.6,45.1,29.83,NNW,337,3.0,3.0,40,0.00,,,0.00,WeatherCatV1.15B25,2013-04-29 08:56:00,
2013-04-29 02:01:00,70.8,45.3,29.83,NNW,337,2.0,3.0,40,0.00,,,0.00,WeatherCatV1.15B25,2013-04-29 09:01:00,
2013-04-29 02:06:00,70.8,45.9,29.83,NNW,339,1.0,2.0,41,0.00,,,0.00,WeatherCatV1.15B25,2013-04-29 09:06:00,
2013-04-29 02:11:00,70.8,45.9,29.83,NNW,343,1.0,3.0,41,0.00,,,0.00,WeatherCatV1.15B25,2013-04-29 09:11:00,
2013-04-29 02:16:00,70.7,45.8,29.82,NNW,337,0.0,1.0,41,0.00,,,0.00,WeatherCatV1.15B25,2013-04-29 09:16:00,
2013-04-29 02:21:00,70.7,46.5,29.82,NNW,337,0.0,0.0,42,0.00,,,0.00,WeatherCatV1.15B25,2013-04-29 09:21:00,
2013-04-29 02:26:00,70.5,46.3,29.82,NNW,335,0.0,2.0,42,0.00,,,0.00,WeatherCatV1.15B25,2013-04-29 09:26:00,
2013-04-29 02:31:00,70.3,46.1,29.82,NNW,333,1.0,2.0,42,0.00,,,0.00,WeatherCatV1.15B25,2013-04-29 09:31:00,
2013-04-29 02:36:00,70.1,46.6,29.82,NNW,335,1.0,2.0,43,0.00,,,0.00,WeatherCatV1.15B25,2013-04-29 09:36:00,
2013-04-29 02:41:00,69.9,46.4,29.82,NNW,333,2.0,2.0,43,0.00,,,0.00,WeatherCatV1.15B25,2013-04-29 09:41:00,
2013-04-29 02:46:00,69.7,46.8,29.81,NNW,329,2.0,3.0,44,0.00,,,0.00,WeatherCatV1.15B25,2013-04-29 09:46:00,
2013-04-29 02:51:00,69.5,46.6,29.81,NNW,333,2.0,3.0,44,0.00,,,0.00,WeatherCatV1.15B25,2013-04-29 09:51:00,
2013-04-29 02:56:00,69.5,46.6,29.81,NNW,332,3.0,3.0,44,0.00,,,0.00,WeatherCatV1.15B25,2013-04-29 09:56:00,
2013-04-29 03:01:00,69.5,46.6,29.81,NNW,335,2.0,2.0,44,0.00,,,0.00,WeatherCatV1.15B25,2013-04-29 10:01:00,
2013-04-29 03:06:00,69.5,46.6,29.81,NNW,333,1.0,2.0,44,0.00,,,0.00,WeatherCatV1.15B25,2013-04-29 10:06:00,
2013-04-29 03:11:00,69.6,46.7,29.81,NNW,342,2.0,3.0,44,0.00,,,0.00,WeatherCatV1.15B25,2013-04-29 10:11:00,
2013-04-29 03:16:00,70.0,46.5,29.81,NNW,332,2.0,2.0,43,0.00,,,0.00,WeatherCatV1.15B25,2013-04-29 10:16:00,
2013-04-29 03:21:00,70.2,46.6,29.81,NNW,332,1.0,2.0,43,0.00,,,0.00,WeatherCatV1.15B25,2013-04-29 10:21:00,
2013-04-29 03:26:00,70.2,46.6,29.81,NNW,336,1.0,1.0,43,0.00,,,0.00,WeatherCatV1.15B25,2013-04-29 10:26:00,
2013-04-29 03:31:00,70.1,46.6,29.80,NNW,336,1.0,1.0,43,0.00,,,0.00,WeatherCatV1.15B25,2013-04-29 10:31:00,
2013-04-29 03:36:00,69.9,46.4,29.80,NNW,339,0.0,0.0,43,0.00,,,0.00,WeatherCatV1.15B25,2013-04-29 10:36:00,
2013-04-29 03:41:00,69.8,46.9,29.80,NNW,339,0.0,0.0,44,0.00,,,0.00,WeatherCatV1.15B25,2013-04-29 10:41:00,
2013-04-29 03:46:00,69.7,46.2,29.80,NNW,339,0.0,0.0,43,0.00,,,0.00,WeatherCatV1.15B25,2013-04-29 10:46:00,
2013-04-29 03:51:00,69.6,46.7,29.80,NNW,339,0.0,0.0,44,0.00,,,0.00,WeatherCatV1.15B25,2013-04-29 10:51:00,
2013-04-29 03:56:00,69.7,46.2,29.80,NNW,339,0.0,0.0,43,0.00,,,0.00,WeatherCatV1.15B25,2013-04-29 10:56:00,
2013-04-29 04:01:00,69.6,46.7,29.80,NNW,333,2.0,3.0,44,0.00,,,0.00,WeatherCatV1.15B25,2013-04-29 11:01:00,
2013-04-29 04:06:00,69.5,46.6,29.80,NNW,341,3.0,3.0,44,0.00,,,0.00,WeatherCatV1.15B25,2013-04-29 11:06:00,
2013-04-29 04:11:00,69.8,46.9,29.80,NNW,331,4.0,5.0,44,0.00,,,0.00,WeatherCatV1.15B25,2013-04-29 11:11:00,
2013-04-29 04:16:00,70.0,46.5,29.80,NNW,334,4.0,6.0,43,0.00,,,0.00,WeatherCatV1.15B25,2013-04-29 11:16:00,
2013-04-29 04:21:00,69.8,46.3,29.80,NW,326,4.0,6.0,43,0.00,,,0.00,WeatherCatV1.15B25,2013-04-29 11:21:00,
2013-04-29 04:26:00,69.7,46.2,29.80,NNW,341,2.0,5.0,43,0.00,,,0.00,WeatherCatV1.15B25,2013-04-29 11:26:00,
2013-04-29 04:31:00,70.1,45.9,29.80,NNW,338,6.0,6.0,42,0.00,,,0.00,WeatherCatV1.15B25,2013-04-29 11:31:00,
2013-04-29 04:36:00,70.3,45.5,29.80,NNW,329,6.0,7.0,41,0.00,,,0.00,WeatherCatV1.15B25,2013-04-29 11:36:00,
2013-04-29 04:41:00,70.6,43.7,29.80,NNW,339,6.0,9.0,38,0.00,,,0.00,WeatherCatV1.15B25,2013-04-29 11:41:00,
2013-04-29 04:46:00,71.0,42.7,29.79,NNW,335,9.0,9.0,36,0.00,,,0.00,WeatherCatV1.15B25,2013-04-29 11:46:00,
2013-04-29 04:51:00,71.2,41.4,29.79,NNW,331,8.0,10.0,34,0.00,,,0.00,WeatherCatV1.15B25,2013-04-29 11:51:00,
2013-04-29 04:56:00,71.3,41.5,29.79,NNW,334,6.0,9.0,34,0.00,,,0.00,WeatherCatV1.15B25,2013-04-29 11:56:00,
2013-04-29 05:01:00,71.3,41.5,29.79,NNW,327,6.0,11.0,34,0.00,,,0.00,WeatherCatV1.15B25,2013-04-29 12:01:00,
2013-04-29 05:06:00,71.1,41.3,29.79,NNW,336,7.0,8.0,34,0.00,,,0.00,WeatherCatV1.15B25,2013-04-29 12:06:00,
2013-04-29 05:11:00,70.8,40.3,29.79,NNW,342,6.0,7.0,33,0.00,,,0.00,WeatherCatV1.15B25,2013-04-29 12:11:00,
2013-04-29 05:16:00,70.8,39.5,29.79,NNW,333,7.0,10.0,32,0.00,,,0.00,WeatherCatV1.15B25,2013-04-29 12:16:00,
2013-04-29 05:21:00,71.1,38.9,29.79,NW,324,6.0,12.0,31,0.00,,,0.00,WeatherCatV1.15B25,2013-04-29 12:21:00,
2013-04-29 05:26:00,71.2,39.8,29.79,NNW,330,5.0,8.0,32,0.00,,,0.00,WeatherCatV1.15B25,2013-04-29 12:26:00,
2013-04-29 05:31:00,71.1,38.1,29.79,NNW,336,6.0,9.0,30,0.00,,,0.00,WeatherCatV1.15B25,2013-04-29 12:31:00,
2013-04-29 05:36:00,71.3,38.3,29.79,NW,324,9.0,10.0,30,0.00,,,0.00,WeatherCatV1.15B25,2013-04-29 12:36:00,
2013-04-29 05:41:00,71.4,38.3,29.79,NNW,331,11.0,11.0,30,0.00,,,0.00,WeatherCatV1.15B25,2013-04-29 12:41:00,
2013-04-29 05:46:00,71.6,37.7,29.79,NNW,333,6.0,10.0,29,0.00,,,0.00,WeatherCatV1.15B25,2013-04-29 12:46:00,
2013-04-29 05:51:00,71.6,37.7,29.79,NNW,331,5.0,7.0,29,0.00,,,0.00,WeatherCatV1.15B25,2013-04-29 12:51:00,
2013-04-29 05:56:00,71.3,37.4,29.79,NNW,338,6.0,7.0,29,0.00,,,0.00,WeatherCatV1.15B25,2013-04-29 12:56:00,
2013-04-29 06:01:00,71.0,38.0,29.79,NNW,339,5.0,7.0,30,0.00,,,0.00,WeatherCatV1.15B25,2013-04-29 13:01:00,
2013-04-29 06:06:00,70.8,37.8,29.79,NNW,343,6.0,6.0,30,0.00,,,0.00,WeatherCatV1.15B25,2013-04-29 13:06:00,
2013-04-29 06:11:00,70.8,37.8,29.79,NNW,332,5.0,7.0,30,0.00,,,0.00,WeatherCatV1.15B25,2013-04-29 13:11:00,
2013-04-29 06:16:00,71.0,37.1,29.79,NNW,340,9.0,9.0,29,0.00,,,0.00,WeatherCatV1.15B25,2013-04-29 13:16:00,
2013-04-29 06:21:00,71.4,37.5,29.79,NNW,330,5.0,5.0,29,0.00,,,0.00,WeatherCatV1.15B25,2013-04-29 13:21:00,
2013-04-29 06:26:00,71.2,37.3,29.79,NNW,341,7.0,8.0,29,0.00,,,0.00,WeatherCatV1.15B25,2013-04-29 13:26:00,
2013-04-29 06:31:00,71.4,37.5,29.79,NNW,335,5.0,8.0,29,0.00,,,0.00,WeatherCatV1.15B25,2013-04-29 13:31:00,
2013-04-29 06:36:00,71.5,37.6,29.79,NNW,335,7.0,8.0,29,0.00,,,0.00,WeatherCatV1.15B25,2013-04-29 13:36:00,
2013-04-29 06:41:00,71.6,36.8,29.79,NNW,337,4.0,7.0,28,0.00,,,0.00,WeatherCatV1.15B25,2013-04-29 13:41:00,
2013-04-29 06:46:00,71.7,36.8,29.79,North,352,3.0,6.0,28,0.00,,,0.00,WeatherCatV1.15B25,2013-04-29 13:46:00,
2013-04-29 06:51:00,71.9,37.0,29.79,NNW,334,5.0,9.0,28,0.00,,,0.00,WeatherCatV1.15B25,2013-04-29 13:51:00,
2013-04-29 06:56:00,71.7,36.8,29.79,NNW,333,6.0,8.0,28,0.00,,,0.00,WeatherCatV1.15B25,2013-04-29 13:56:00,
2013-04-29 07:01:00,71.7,36.8,29.80,NNW,344,6.0,6.0,28,0.00,,,0.00,WeatherCatV1.15B25,2013-04-29 14:01:00,
2013-04-29 07:06:00,71.5,37.6,29.80,NNW,333,6.0,7.0,29,0.00,,,0.00,WeatherCatV1.15B25,2013-04-29 14:06:00,
2013-04-29 07:11:00,71.3,38.3,29.80,NNW,337,5.0,7.0,30,0.00,,,0.00,WeatherCatV1.15B25,2013-04-29 14:11:00,
2013-04-29 07:16:00,71.0,38.0,29.80,NNW,337,5.0,6.0,30,0.00,,,0.00,WeatherCatV1.15B25,2013-04-29 14:16:00,
2013-04-29 07:21:00,70.8,38.7,29.80,North,349,5.0,7.0,31,0.00,,,0.00,WeatherCatV1.15B25,2013-04-29 14:21:00,
2013-04-29 07:26:00,70.9,37.9,29.80,NNW,343,7.0,9.0,30,0.00,,,0.00,WeatherCatV1.15B25,2013-04-29 14:26:00,
2013-04-29 07:31:00,71.1,38.1,29.80,NNW,327,7.0,9.0,30,0.00,,,0.00,WeatherCatV1.15B25,2013-04-29 14:31:00,
2013-04-29 07:36:00,71.1,38.9,29.80,NNW,336,9.0,9.0,31,0.00,,,0.00,WeatherCatV1.15B25,2013-04-29 14:36:00,
2013-04-29 07:41:00,71.1,38.1,29.80,NNW,330,6.0,7.0,30,0.00,,,0.00,WeatherCatV1.15B25,2013-04-29 14:41:00,
2013-04-29 07:46:00,71.1,38.9,29.81,NNW,339,5.0,7.0,31,0.00,,,0.00,WeatherCatV1.15B25,2013-04-29 14:46:00,
2013-04-29 07:51:00,71.1,38.1,29.81,NNW,335,5.0,9.0,30,0.00,,,0.00,WeatherCatV1.15B25,2013-04-29 14:51:00,
2013-04-29 07:56:00,71.1,38.1,29.81,NNW,339,5.0,13.0,30,0.00,,,0.00,WeatherCatV1.15B25,2013-04-29 14:56:00,
2013-04-29 08:01:00,71.2,38.2,29.81,NW,324,6.0,7.0,30,0.00,,,0.00,WeatherCatV1.15B25,2013-04-29 15:01:00,
2013-04-29 08:06:00,71.4,37.5,29.81,NNW,339,6.0,9.0,29,0.00,,,0.00,WeatherCatV1.15B25,2013-04-29 15:06:00,
2013-04-29 08:11:00,71.7,37.7,29.81,NW,326,7.0,8.0,29,0.00,,,0.00,WeatherCatV1.15B25,2013-04-29 15:11:00,
2013-04-29 08:16:00,72.0,37.1,29.81,NNW,330,6.0,9.0,28,0.00,,,0.00,WeatherCatV1.15B25,2013-04-29 15:16:00,
2013-04-29 08:21:00,72.2,37.3,29.81,NW,314,10.0,10.0,28,0.00,,,0.00,WeatherCatV1.15B25,2013-04-29 15:21:00,
2013-04-29 08:26:00,72.3,37.4,29.81,East,97,9.0,11.0,28,0.00,,,0.00,WeatherCatV1.15B25,2013-04-29 15:26:00,
2013-04-29 08:31:00,72.5,36.6,29.80,NNW,342,6.0,11.0,27,0.00,,,0.00,WeatherCatV1.15B25,2013-04-29 15:31:00,
2013-04-29 08:36:00,72.5,36.6,29.80,North,349,3.0,9.0,27,0.00,,,0.00,WeatherCatV1.15B25,2013-04-29 15:36:00,
2013-04-29 08:41:00,72.6,36.7,29.80,NNW,342,5.0,13.0,27,0.00,,,0.00,WeatherCatV1.15B25,2013-04-29 15:41:00,
2013-04-29 08:46:00,72.9,36.9,29.81,NNW,329,5.0,11.0,27,0.00,,,0.00,WeatherCatV1.15B25,2013-04-29 15:46:00,
2013-04-29 08:51:00,73.1,38.0,29.81,NW,310,9.0,11.0,28,0.00,,,0.00,WeatherCatV1.15B25,2013-04-29 15:51:00,
2013-04-29 08:56:00,73.2,37.2,29.81,NNW,336,4.0,8.0,27,0.00,,,0.00,WeatherCatV1.15B25,2013-04-29 15:56:00,
2013-04-29 09:01:00,73.5,36.5,29.81,North,5,2.0,8.0,26,0.00,,,0.00,WeatherCatV1.15B25,2013-04-29 16:01:00,
2013-04-29 09:06:00,73.8,36.8,29.81,NNW,348,4.0,10.0,26,0.00,,,0.00,WeatherCatV1.15B25,2013-04-29 16:06:00,
2013-04-29 09:11:00,73.9,36.8,29.81,NNW,344,3.0,12.0,26,0.00,,,0.00,WeatherCatV1.15B25,2013-04-29 16:11:00,
2013-04-29 09:16:00,74.0,36.9,29.82,NNW,331,6.0,8.0,26,0.00,,,0.00,WeatherCatV1.15B25,2013-04-29 16:16:00,
2013-04-29 09:21:00,74.0,36.9,29.82,North,351,5.0,11.0,26,0.00,,,0.00,WeatherCatV1.15B25,2013-04-29 16:21:00,
2013-04-29 09:26:00,74.0,36.9,29.82,NNW,347,4.0,8.0,26,0.00,,,0.00,WeatherCatV1.15B25,2013-04-29 16:26:00,
2013-04-29 09:31:00,74.1,37.0,29.82,NW,325,8.0,9.0,26,0.00,,,0.00,WeatherCatV1.15B25,2013-04-29 16:31:00,
2013-04-29 09:36:00,74.1,37.0,29.82,NNW,328,9.0,10.0,26,0.00,,,0.00,WeatherCatV1.15B25,2013-04-29 16:36:00,
2013-04-29 09:41:00,74.1,38.0,29.82,NNW,347,4.0,10.0,27,0.00,,,0.00,WeatherCatV1.15B25,2013-04-29 16:41:00,
2013-04-29 09:46:00,74.3,38.1,29.82,NW,325,9.0,9.0,27,0.00,,,0.00,WeatherCatV1.15B25,2013-04-29 16:46:00,
2013-04-29 09:51:00,74.5,39.2,29.82,NNW,331,6.0,9.0,28,0.00,,,0.00,WeatherCatV1.15B25,2013-04-29 16:51:00,
2013-04-29 09:56:00,74.7,39.4,29.82,NNW,337,4.0,8.0,28,0.00,,,0.00,WeatherCatV1.15B25,2013-04-29 16:56:00,
2013-04-29 10:01:00,74.9,40.5,29.82,North,1,3.0,5.0,29,0.00,,,0.00,WeatherCatV1.15B25,2013-04-29 17:01:00,
2013-04-29 10:06:00,75.2,40.7,29.82,NNW,339,4.0,5.0,29,0.00,,,0.00,WeatherCatV1.15B25,2013-04-29 17:06:00,
2013-04-29 10:11:00,75.6,41.1,29.82,North,354,2.0,5.0,29,0.00,,,0.00,WeatherCatV1.15B25,2013-04-29 17:11:00,
2013-04-29 10:16:00,75.8,40.4,29.82,North,359,2.0,6.0,28,0.00,,,0.00,WeatherCatV1.15B25,2013-04-29 17:16:00,
2013-04-29 10:21:00,75.9,39.5,29.82,NW,325,6.0,6.0,27,0.00,,,0.00,WeatherCatV1.15B25,2013-04-29 17:21:00,
2013-04-29 10:26:00,76.0,40.5,29.82,North,357,2.0,3.0,28,0.00,,,0.00,WeatherCatV1.15B25,2013-04-29 17:26:00,
2013-04-29 10:31:00,76.3,41.7,29.82,NNW,340,0.0,4.0,29,0.00,,,0.00,WeatherCatV1.15B25,2013-04-29 17:31:00,
2013-04-29 10:36:00,76.6,40.1,29.82,NNW,332,6.0,8.0,27,0.00,,,0.00,WeatherCatV1.15B25,2013-04-29 17:36:00,
2013-04-29 10:41:00,76.8,40.3,29.82,NNW,338,0.0,4.0,27,0.00,,,0.00,WeatherCatV1.15B25,2013-04-29 17:41:00,
2013-04-29 10:46:00,77.0,41.4,29.82,East,93,1.0,4.0,28,0.00,,,0.00,WeatherCatV1.15B25,2013-04-29 17:46:00,
2013-04-29 10:51:00,77.4,42.6,29.82,NNW,341,0.0,2.0,29,0.00,,,0.00,WeatherCatV1.15B25,2013-04-29 17:51:00,
2013-04-29 10:56:00,77.7,41.0,29.82,North,7,3.0,3.0,27,0.00,,,0.00,WeatherCatV1.15B25,2013-04-29 17:56:00,
2013-04-29 11:01:00,78.0,41.3,29.82,NNW,337,1.0,3.0,27,0.00,,,0.00,WeatherCatV1.15B25,2013-04-29 18:01:00,
2013-04-29 11:06:00,78.4,40.7,29.82,SE,146,0.0,4.0,26,0.00,,,0.00,WeatherCatV1.15B25,2013-04-29 18:06:00,
2013-04-29 11:11:00,78.7,39.9,29.82,NNW,330,3.0,5.0,25,0.00,,,0.00,WeatherCatV1.15B25,2013-04-29 18:11:00,
2013-04-29 11:16:00,78.6,39.8,29.83,NNW,348,0.0,2.0,25,0.00,,,0.00,WeatherCatV1.15B25,2013-04-29 18:16:00,
2013-04-29 11:21:00,78.6,39.8,29.83,NNW,338,4.0,4.0,25,0.00,,,0.00,WeatherCatV1.15B25,2013-04-29 18:21:00,
2013-04-29 11:26:00,78.7,40.9,29.83,North,6,1.0,6.0,26,0.00,,,0.00,WeatherCatV1.15B25,2013-04-29 18:26:00,
2013-04-29 11:31:00,78.8,40.0,29.83,NNW,348,4.0,5.0,25,0.00,,,0.00,WeatherCatV1.15B25,2013-04-29 18:31:00,
2013-04-29 11:36:00,79.1,40.2,29.83,WNW,282,4.0,8.0,25,0.00,,,0.00,WeatherCatV1.15B25,2013-04-29 18:36:00,
2013-04-29 11:41:00,79.8,40.8,29.83,NW,326,7.0,7.0,25,0.00,,,0.00,WeatherCatV1.15B25,2013-04-29 18:41:00,
2013-04-29 11:46:00,80.2,40.1,29.82,NW,323,3.0,6.0,24,0.00,,,0.00,WeatherCatV1.15B25,2013-04-29 18:46:00,
2013-04-29 11:51:00,80.0,39.9,29.82,North,5,0.0,5.0,24,0.00,,,0.00,WeatherCatV1.15B25,2013-04-29 18:51:00,
2013-04-29 11:56:00,80.2,40.1,29.82,NNW,336,5.0,6.0,24,0.00,,,0.00,WeatherCatV1.15B25,2013-04-29 18:56:00,
2013-04-29 12:01:00,80.3,41.2,29.82,NNW,335,8.0,8.0,25,0.00,,,0.00,WeatherCatV1.15B25,2013-04-29 19:01:00,
2013-04-29 12:06:00,80.9,40.7,29.82,North,3,1.0,2.0,24,0.00,,,0.00,WeatherCatV1.15B25,2013-04-29 19:06:00,
2013-04-29 12:11:00,80.9,40.7,29.82,North,352,2.0,3.0,24,0.00,,,0.00,WeatherCatV1.15B25,2013-04-29 19:11:00,
2013-04-29 12:16:00,81.2,42.0,29.82,North,351,1.0,3.0,25,0.00,,,0.00,WeatherCatV1.15B25,2013-04-29 19:16:00,
2013-04-29 12:21:00,82.1,42.8,29.82,NNW,331,1.0,1.0,25,0.00,,,0.00,WeatherCatV1.15B25,2013-04-29 19:21:00,
2013-04-29 12:26:00,83.1,41.4,29.82,NNW,335,5.0,7.0,23,0.00,,,0.00,WeatherCatV1.15B25,2013-04-29 19:26:00,
2013-04-29 12:31:00,83.2,42.6,29.81,NNW,337,0.0,1.0,24,0.00,,,0.00,WeatherCatV1.15B25,2013-04-29 19:31:00,
2013-04-29 12:36:00,83.2,42.6,29.81,NNW,343,4.0,5.0,24,0.00,,,0.00,WeatherCatV1.15B25,2013-04-29 19:36:00,
2013-04-29 12:41:00,82.8,40.0,29.81,NNW,341,3.0,7.0,22,0.00,,,0.00,WeatherCatV1.15B25,2013-04-29 19:41:00,
2013-04-29 12:46:00,82.3,41.9,29.81,North,8,1.0,5.0,24,0.00,,,0.00,WeatherCatV1.15B25,2013-04-29 19:46:00,
2013-04-29 12:51:00,82.5,40.9,29.81,NNW,344,2.0,7.0,23,0.00,,,0.00,WeatherCatV1.15B25,2013-04-29 19:51:00,
2013-04-29 12:56:00,82.4,40.9,29.81,North,349,1.0,3.0,23,0.00,,,0.00,WeatherCatV1.15B25,2013-04-29 19:56:00,
2013-04-29 13:01:00,82.5,43.1,29.81,ESE,119,0.0,2.0,25,0.00,,,0.00,WeatherCatV1.15B25,2013-04-29 20:01:00,
2013-04-29 13:06:00,83.3,42.7,29.81,NNW,340,2.0,3.0,24,0.00,,,0.00,WeatherCatV1.15B25,2013-04-29 20:06:00,
2013-04-29 13:11:00,83.6,44.0,29.81,NNW,335,0.0,2.0,25,0.00,,,0.00,WeatherCatV1.15B25,2013-04-29 20:11:00,
2013-04-29 13:16:00,84.3,43.5,29.80,NE,38,0.0,1.0,24,0.00,,,0.00,WeatherCatV1.15B25,2013-04-29 20:16:00,
2013-04-29 13:21:00,85.4,43.4,29.80,NNW,343,0.0,1.0,23,0.00,,,0.00,WeatherCatV1.15B25,2013-04-29 20:21:00,
2013-04-29 13:26:00,84.9,41.8,29.80,North,2,1.0,3.0,22,0.00,,,0.00,WeatherCatV1.15B25,2013-04-29 20:26:00,
2013-04-29 13:31:00,84.9,42.9,29.79,South,170,0.0,8.0,23,0.00,,,0.00,WeatherCatV1.15B25,2013-04-29 20:31:00,
2013-04-29 13:36:00,85.3,42.1,29.79,NNW,347,3.0,6.0,22,0.00,,,0.00,WeatherCatV1.15B25,2013-04-29 20:36:00,
2013-04-29 13:41:00,84.9,45.1,29.79,NNW,348,1.0,3.0,25,0.00,,,0.00,WeatherCatV1.15B25,2013-04-29 20:41:00,
2013-04-29 13:46:00,84.7,42.8,29.79,North,2,0.0,7.0,23,0.00,,,0.00,WeatherCatV1.15B25,2013-04-29 20:46:00,
2013-04-29 13:51:00,84.9,42.9,29.79,NNW,343,1.0,2.0,23,0.00,,,0.00,WeatherCatV1.15B25,2013-04-29 20:51:00,
2013-04-29 13:56:00,84.8,42.9,29.79,North,2,1.0,2.0,23,0.00,,,0.00,WeatherCatV1.15B25,2013-04-29 20:56:00,
2013-04-29 14:01:00,84.1,43.4,29.79,NNW,347,0.0,6.0,24,0.00,,,0.00,WeatherCatV1.15B25,2013-04-29 21:01:00,
2013-04-29 14:06:00,83.7,44.1,29.79,East,86,1.0,1.0,25,0.00,,,0.00,WeatherCatV1.15B25,2013-04-29 21:06:00,
2013-04-29 14:11:00,84.1,43.4,29.79,NNW,337,4.0,4.0,24,0.00,,,0.00,WeatherCatV1.15B25,2013-04-29 21:11:00,
2013-04-29 14:16:00,83.6,41.9,29.79,NNW,328,2.0,3.0,23,0.00,,,0.00,WeatherCatV1.15B25,2013-04-29 21:16:00,
2013-04-29 14:21:00,83.2,43.7,29.79,NNW,331,0.0,2.0,25,0.00,,,0.00,WeatherCatV1.15B25,2013-04-29 21:21:00,
2013-04-29 14:26:00,83.6,44.0,29.79,ESE,104,1.0,4.0,25,0.00,,,0.00,WeatherCatV1.15B25,2013-04-29 21:26:00,
2013-04-29 14:31:00,84.2,43.5,29.78,North,354,1.0,5.0,24,0.00,,,0.00,WeatherCatV1.15B25,2013-04-29 21:31:00,
2013-04-29 14:36:00,84.0,41.0,29.78,NNW,335,0.0,9.0,22,0.00,,,0.00,WeatherCatV1.15B25,2013-04-29 21:36:00,
2013-04-29 14:41:00,83.8,43.1,29.78,NNW,341,0.0,2.0,24,0.00,,,0.00,WeatherCatV1.15B25,2013-04-29 21:41:00,
2013-04-29 14:46:00,83.9,43.2,29.78,North,10,1.0,1.0,24,0.00,,,0.00,WeatherCatV1.15B25,2013-04-29 21:46:00,
2013-04-29 14:51:00,84.4,42.5,29.78,NNW,339,2.0,4.0,23,0.00,,,0.00,WeatherCatV1.15B25,2013-04-29 21:51:00,
2013-04-29 14:56:00,83.9,44.3,29.78,East,101,1.0,3.0,25,0.00,,,0.00,WeatherCatV1.15B25,2013-04-29 21:56:00,
2013-04-29 15:01:00,83.9,43.2,29.77,ENE,59,0.0,1.0,24,0.00,,,0.00,WeatherCatV1.15B25,2013-04-29 22:01:00,
2013-04-29 15:06:00,83.8,44.2,29.77,NNW,339,1.0,3.0,25,0.00,,,0.00,WeatherCatV1.15B25,2013-04-29 22:06:00,
2013-04-29 15:11:00,83.8,44.2,29.77,NE,40,0.0,1.0,25,0.00,,,0.00,WeatherCatV1.15B25,2013-04-29 22:11:00,
2013-04-29 15:16:00,83.9,44.3,29.77,NE,54,0.0,1.0,25,0.00,,,0.00,WeatherCatV1.15B25,2013-04-29 22:16:00,
2013-04-29 15:21:00,84.1,44.5,29.77,NNW,337,1.0,1.0,25,0.00,,,0.00,WeatherCatV1.15B25,2013-04-29 22:21:00,
2013-04-29 15:26:00,84.1,44.5,29.77,SE,132,0.0,1.0,25,0.00,,,0.00,WeatherCatV1.15B25,2013-04-29 22:26:00,
2013-04-29 15:31:00,84.2,44.5,29.76,NNE,23,0.0,0.0,25,0.00,,,0.00,WeatherCatV1.15B25,2013-04-29 22:31:00,
2013-04-29 15:36:00,84.3,43.5,29.76,SE,145,1.0,2.0,24,0.00,,,0.00,WeatherCatV1.15B25,2013-04-29 22:36:00,
2013-04-29 15:41:00,84.5,45.8,29.76,ESE,123,0.0,2.0,26,0.00,,,0.00,WeatherCatV1.15B25,2013-04-29 22:41:00,
2013-04-29 15:46:00,84.3,46.6,29.75,NNE,19,0.0,1.0,27,0.00,,,0.00,WeatherCatV1.15B25,2013-04-29 22:46:00,
2013-04-29 15:51:00,84.2,44.5,29.75,North,7,0.0,1.0,25,0.00,,,0.00,WeatherCatV1.15B25,2013-04-29 22:51:00,
2013-04-29 15:56:00,84.1,43.4,29.75,NNW,341,0.0,4.0,24,0.00,,,0.00,WeatherCatV1.15B25,2013-04-29 22:56:00,
2013-04-29 16:01:00,84.0,45.4,29.75,NNW,336,2.0,5.0,26,0.00,,,0.00,WeatherCatV1.15B25,2013-04-29 23:01:00,
2013-04-29 16:06:00,83.7,44.1,29.75,ENE,69,0.0,1.0,25,0.00,,,0.00,WeatherCatV1.15B25,2013-04-29 23:06:00,
2013-04-29 16:11:00,83.7,44.1,29.75,North,9,0.0,3.0,25,0.00,,,0.00,WeatherCatV1.15B25,2013-04-29 23:11:00,
2013-04-29 16:16:00,83.6,45.1,29.75,ENE,76,0.0,0.0,26,0.00,,,0.00,WeatherCatV1.15B25,2013-04-29 23:16:00,
2013-04-29 16:21:00,83.6,44.0,29.75,ESE,115,0.0,2.0,25,0.00,,,0.00,WeatherCatV1.15B25,2013-04-29 23:21:00,
2013-04-29 16:26:00,83.6,43.0,29.75,NNE,15,1.0,1.0,24,0.00,,,0.00,WeatherCatV1.15B25,2013-04-29 23:26:00,
2013-04-29 16:31:00,83.2,42.6,29.74,NNW,345,0.0,3.0,24,0.00,,,0.00,WeatherCatV1.15B25,2013-04-29 23:31:00,
2013-04-29 16:36:00,83.0,44.6,29.74,East,79,0.0,1.0,26,0.00,,,0.00,WeatherCatV1.15B25,2013-04-29 23:36:00,
2013-04-29 16:41:00,83.0,46.5,29.74,East,81,0.0,0.0,28,0.00,,,0.00,WeatherCatV1.15B25,2013-04-29 23:41:00,
2013-04-29 16:46:00,82.9,47.3,29.74,East,87,0.0,1.0,29,0.00,,,0.00,WeatherCatV1.15B25,2013-04-29 23:46:00,
2013-04-29 16:51:00,82.5,47.0,29.74,SE,133,0.0,0.0,29,0.00,,,0.00,WeatherCatV1.15B25,2013-04-29 23:51:00,
2013-04-29 16:56:00,82.1,49.3,29.74,ESE,123,0.0,0.0,32,0.00,,,0.00,WeatherCatV1.15B25,2013-04-29 23:56:00,
2013-04-29 17:01:00,81.8,49.0,29.74,SE,140,0.0,0.0,32,0.00,,,0.00,WeatherCatV1.15B25,2013-04-30 00:01:00,
2013-04-29 17:06:00,81.4,48.7,29.74,SE,140,0.0,2.0,32,0.00,,,0.00,WeatherCatV1.15B25,2013-04-30 00:06:00,
2013-04-29 17:11:00,81.1,49.2,29.74,SSE,149,0.0,1.0,33,0.00,,,0.00,WeatherCatV1.15B25,2013-04-30 00:11:00,
2013-04-29 17:16:00,80.8,49.8,29.74,South,173,0.0,0.0,34,0.00,,,0.00,WeatherCatV1.15B25,2013-04-30 00:16:00,
2013-04-29 17:21:00,80.6,43.5,29.74,North,10,0.0,3.0,27,0.00,,,0.00,WeatherCatV1.15B25,2013-04-30 00:21:00,
2013-04-29 17:26:00,80.4,44.3,29.74,NNW,345,0.0,2.0,28,0.00,,,0.00,WeatherCatV1.15B25,2013-04-30 00:26:00,
2013-04-29 17:31:00,80.2,45.0,29.73,North,355,2.0,3.0,29,0.00,,,0.00,WeatherCatV1.15B25,2013-04-30 00:31:00,
2013-04-29 17:36:00,80.0,45.8,29.73,North,0,1.0,5.0,30,0.00,,,0.00,WeatherCatV1.15B25,2013-04-30 00:36:00,
2013-04-29 17:41:00,79.7,45.5,29.73,NNW,344,1.0,4.0,30,0.00,,,0.00,WeatherCatV1.15B25,2013-04-30 00:41:00,
2013-04-29 17:46:00,79.4,46.9,29.73,NNW,339,0.0,1.0,32,0.00,,,0.00,WeatherCatV1.15B25,2013-04-30 00:46:00,
2013-04-29 17:51:00,79.3,46.9,29.73,NNW,343,3.0,4.0,32,0.00,,,0.00,WeatherCatV1.15B25,2013-04-30 00:51:00,
2013-04-29 17:56:00,79.1,46.7,29.73,NNW,343,2.0,4.0,32,0.00,,,0.00,WeatherCatV1.15B25,2013-04-30 00:56:00,
2013-04-29 18:01:00,78.8,46.4,29.73,NNW,341,1.0,3.0,32,0.00,,,0.00,WeatherCatV1.15B25,2013-04-30 01:01:00,
2013-04-29 18:06:00,78.6,46.3,29.73,NNW,338,1.0,4.0,32,0.00,,,0.00,WeatherCatV1.15B25,2013-04-30 01:06:00,
2013-04-29 18:11:00,78.3,46.8,29.73,NNE,14,0.0,4.0,33,0.00,,,0.00,WeatherCatV1.15B25,2013-04-30 01:11:00,
2013-04-29 18:16:00,78.0,47.3,29.72,NNW,329,3.0,3.0,34,0.00,,,0.00,WeatherCatV1.15B25,2013-04-30 01:16:00,
2013-04-29 18:21:00,77.7,47.8,29.72,North,350,1.0,5.0,35,0.00,,,0.00,WeatherCatV1.15B25,2013-04-30 01:21:00,
2013-04-29 18:26:00,77.5,48.4,29.72,NNW,335,3.0,4.0,36,0.00,,,0.00,WeatherCatV1.15B25,2013-04-30 01:26:00,
2013-04-29 18:31:00,77.2,48.2,29.72,NNW,335,2.0,5.0,36,0.00,,,0.00,WeatherCatV1.15B25,2013-04-30 01:31:00,
2013-04-29 18:36:00,77.0,48.7,29.72,NNW,331,1.0,3.0,37,0.00,,,0.00,WeatherCatV1.15B25,2013-04-30 01:36:00,
2013-04-29 18:41:00,76.7,48.4,29.72,North,350,2.0,4.0,37,0.00,,,0.00,WeatherCatV1.15B25,2013-04-30 01:41:00,
2013-04-29 18:46:00,76.5,49.0,29.72,North,349,2.0,2.0,38,0.00,,,0.00,WeatherCatV1.15B25,2013-04-30 01:46:00,
2013-04-29 18:51:00,76.3,48.8,29.72,NNW,342,2.0,6.0,38,0.00,,,0.00,WeatherCatV1.15B25,2013-04-30 01:51:00,
2013-04-29 18:56:00,76.0,48.5,29.72,NNW,344,3.0,3.0,38,0.00,,,0.00,WeatherCatV1.15B25,2013-04-30 01:56:00,
2013-04-29 19:01:00,75.7,49.0,29.72,SE,133,2.0,4.0,39,0.00,,,0.00,WeatherCatV1.15B25,2013-04-30 02:01:00,
2013-04-29 19:06:00,75.4,48.7,29.72,NNW,337,1.0,3.0,39,0.00,,,0.00,WeatherCatV1.15B25,2013-04-30 02:06:00,
2013-04-29 19:11:00,75.1,49.1,29.72,NNW,332,2.0,3.0,40,0.00,,,0.00,WeatherCatV1.15B25,2013-04-30 02:11:00,
2013-04-29 19:16:00,74.9,48.9,29.71,NNW,329,3.0,4.0,40,0.00,,,0.00,WeatherCatV1.15B25,2013-04-30 02:16:00,
2013-04-29 19:21:00,74.7,48.8,29.71,NNW,336,2.0,5.0,40,0.00,,,0.00,WeatherCatV1.15B25,2013-04-30 02:21:00,
2013-04-29 19:26:00,74.4,49.1,29.71,NNW,335,2.0,4.0,41,0.00,,,0.00,WeatherCatV1.15B25,2013-04-30 02:26:00,
2013-04-29 19:31:00,74.0,48.8,29.71,NNW,333,3.0,6.0,41,0.00,,,0.00,WeatherCatV1.15B25,2013-04-30 02:31:00,
2013-04-29 19:36:00,73.7,49.2,29.71,NNW,342,2.0,4.0,42,0.00,,,0.00,WeatherCatV1.15B25,2013-04-30 02:36:00,
2013-04-29 19:41:00,73.3,48.8,29.71,NNW,335,3.0,5.0,42,0.00,,,0.00,WeatherCatV1.15B25,2013-04-30 02:41:00,
2013-04-29 19:46:00,73.0,48.5,29.71,NNW,335,3.0,5.0,42,0.00,,,0.00,WeatherCatV1.15B25,2013-04-30 02:46:00,
2013-04-29 19:51:00,72.6,48.2,29.71,NW,319,2.0,4.0,42,0.00,,,0.00,WeatherCatV1.15B25,2013-04-30 02:51:00,
2013-04-29 19:56:00,72.2,48.4,29.71,NNW,337,2.0,5.0,43,0.00,,,0.00,WeatherCatV1.15B25,2013-04-30 02:56:00,
2013-04-29 20:01:00,71.7,48.6,29.70,NNW,345,3.0,6.0,44,0.00,,,0.00,WeatherCatV1.15B25,2013-04-30 03:01:00,
2013-04-29 20:06:00,71.1,48.7,29.70,NNW,334,4.0,5.0,45,0.00,,,0.00,WeatherCatV1.15B25,2013-04-30 03:06:00,
2013-04-29 20:11:00,70.6,48.8,29.70,NNW,331,5.0,6.0,46,0.00,,,0.00,WeatherCatV1.15B25,2013-04-30 03:11:00,
2013-04-29 20:16:00,70.0,48.8,29.70,NNW,329,7.0,7.0,47,0.00,,,0.00,WeatherCatV1.15B25,2013-04-30 03:16:00,
2013-04-29 20:21:00,69.4,49.4,29.70,NNW,347,6.0,7.0,49,0.00,,,0.00,WeatherCatV1.15B25,2013-04-30 03:21:00,
2013-04-29 20:26:00,69.1,49.7,29.70,NNW,339,5.0,6.0,50,0.00,,,0.00,WeatherCatV1.15B25,2013-04-30 03:26:00,
2013-04-29 20:31:00,68.6,50.3,29.70,NNW,334,7.0,9.0,52,0.00,,,0.00,WeatherCatV1.15B25,2013-04-30 03:31:00,
2013-04-29 20:36:00,67.9,50.6,29.70,NNW,333,5.0,8.0,54,0.00,,,0.00,WeatherCatV1.15B25,2013-04-30 03:36:00,
2013-04-29 20:41:00,67.3,50.6,29.70,NW,325,7.0,10.0,55,0.00,,,0.00,WeatherCatV1.15B25,2013-04-30 03:41:00,
2013-04-29 20:46:00,66.9,50.7,29.70,NNW,327,6.0,6.0,56,0.00,,,0.00,WeatherCatV1.15B25,2013-04-30 03:46:00,
2013-04-29 20:51:00,66.6,50.9,29.70,NE,44,6.0,9.0,57,0.00,,,0.00,WeatherCatV1.15B25,2013-04-30 03:51:00,
2013-04-29 20:56:00,66.3,51.1,29.70,NNW,335,7.0,9.0,58,0.00,,,0.00,WeatherCatV1.15B25,2013-04-30 03:56:00,
2013-04-29 21:01:00,66.2,49.1,29.70,NNW,336,7.0,7.0,54,0.00,,,0.00,WeatherCatV1.15B25,2013-04-30 04:01:00,
2013-04-29 21:06:00,67.0,48.8,29.70,NNW,327,6.0,9.0,52,0.00,,,0.00,WeatherCatV1.15B25,2013-04-30 04:06:00,
2013-04-29 21:11:00,67.8,46.8,29.70,NNW,329,3.0,8.0,47,0.00,,,0.00,WeatherCatV1.15B25,2013-04-30 04:11:00,
2013-04-29 21:16:00,68.6,46.4,29.70,NW,316,5.0,9.0,45,0.00,,,0.00,WeatherCatV1.15B25,2013-04-30 04:16:00,
2013-04-29 21:21:00,68.8,47.2,29.70,NNW,343,5.0,7.0,46,0.00,,,0.00,WeatherCatV1.15B25,2013-04-30 04:21:00,
2013-04-29 21:26:00,68.6,45.8,29.70,NNW,333,4.0,8.0,44,0.00,,,0.00,WeatherCatV1.15B25,2013-04-30 04:26:00,
2013-04-29 21:31:00,68.5,46.3,29.70,NNW,334,5.0,7.0,45,0.00,,,0.00,WeatherCatV1.15B25,2013-04-30 04:31:00,
2013-04-29 21:36:00,68.3,46.1,29.70,NNW,337,4.0,7.0,45,0.00,,,0.00,WeatherCatV1.15B25,2013-04-30 04:36:00,
2013-04-29 21:41:00,68.1,45.9,29.70,NNW,334,4.0,5.0,45,0.00,,,0.00,WeatherCatV1.15B25,2013-04-30 04:41:00,
2013-04-29 21:46:00,67.9,45.8,29.71,NNW,335,6.0,7.0,45,0.00,,,0.00,WeatherCatV1.15B25,2013-04-30 04:46:00,
2013-04-29 21:51:00,67.7,44.4,29.71,NNW,332,4.0,5.0,43,0.00,,,0.00,WeatherCatV1.15B25,2013-04-30 04:51:00,
2013-04-29 21:56:00,67.8,44.5,29.71,NNW,344,1.0,5.0,43,0.00,,,0.00,WeatherCatV1.15B25,2013-04-30 04:56:00,
2013-04-29 22:01:00,67.9,43.3,29.71,NNW,336,0.0,2.0,41,0.00,,,0.00,WeatherCatV1.15B25,2013-04-30 05:01:00,
2013-04-29 22:06:00,68.0,42.8,29.71,NNW,333,0.0,2.0,40,0.00,,,0.00,WeatherCatV1.15B25,2013-04-30 05:06:00,
2013-04-29 22:11:00,67.9,41.3,29.71,NNW,333,0.0,2.0,38,0.00,,,0.00,WeatherCatV1.15B25,2013-04-30 05:11:00,
2013-04-29 22:16:00,68.0,40.7,29.71,NNW,330,1.0,2.0,37,0.00,,,0.00,WeatherCatV1.15B25,2013-04-30 05:16:00,
2013-04-29 22:21:00,68.1,40.8,29.71,NNW,330,1.0,1.0,37,0.00,,,0.00,WeatherCatV1.15B25,2013-04-30 05:21:00,
2013-04-29 22:26:00,68.2,40.9,29.71,NNW,335,2.0,4.0,37,0.00,,,0.00,WeatherCatV1.15B25,2013-04-30 05:26:00,
2013-04-29 22:31:00,68.1,40.8,29.71,NNW,337,2.0,3.0,37,0.00,,,0.00,WeatherCatV1.15B25,2013-04-30 05:31:00,
2013-04-29 22:36:00,67.9,40.0,29.71,NNW,335,2.0,3.0,36,0.00,,,0.00,WeatherCatV1.15B25,2013-04-30 05:36:00,
2013-04-29 22:41:00,67.8,40.6,29.71,NNW,334,1.0,1.0,37,0.00,,,0.00,WeatherCatV1.15B25,2013-04-30 05:41:00,
2013-04-29 22:46:00,67.7,40.5,29.71,NNW,334,0.0,0.0,37,0.00,,,0.00,WeatherCatV1.15B25,2013-04-30 05:46:00,
2013-04-29 22:51:00,67.7,39.1,29.71,NNW,334,0.0,0.0,35,0.00,,,0.00,WeatherCatV1.15B25,2013-04-30 05:51:00,
2013-04-29 22:56:00,67.6,39.7,29.71,NNW,334,0.0,0.0,36,0.00,,,0.00,WeatherCatV1.15B25,2013-04-30 05:56:00,
2013-04-29 23:01:00,67.5,37.4,29.71,NNW,334,0.0,0.0,33,0.00,,,0.00,WeatherCatV1.15B25,2013-04-30 06:01:00,
2013-04-29 23:06:00,67.6,38.2,29.71,NNW,334,0.0,0.0,34,0.00,,,0.00,WeatherCatV1.15B25,2013-04-30 06:06:00,
2013-04-29 23:11:00,67.7,37.6,29.71,NNW,334,0.0,0.0,33,0.00,,,0.00,WeatherCatV1.15B25,2013-04-30 06:11:00,
2013-04-29 23:16:00,67.8,37.6,29.70,NNW,334,0.0,0.0,33,0.00,,,0.00,WeatherCatV1.15B25,2013-04-30 06:16:00,
2013-04-29 23:21:00,67.7,37.6,29.70,NNW,334,0.0,0.0,33,0.00,,,0.00,WeatherCatV1.15B25,2013-04-30 06:21:00,
2013-04-29 23:26:00,67.7,37.6,29.70,NNW,334,0.0,0.0,33,0.00,,,0.00,WeatherCatV1.15B25,2013-04-30 06:26:00,
2013-04-29 23:31:00,67.6,38.2,29.70,NNW,334,0.0,0.0,34,0.00,,,0.00,WeatherCatV1.15B25,2013-04-30 06:31:00,
2013-04-29 23:36:00,67.6,38.2,29.70,NNW,334,0.0,0.0,34,0.00,,,0.00,WeatherCatV1.15B25,2013-04-30 06:36:00,
2013-04-29 23:41:00,67.4,38.8,29.70,NNW,334,0.0,0.0,35,0.00,,,0.00,WeatherCatV1.15B25,2013-04-30 06:41:00,
2013-04-29 23:46:00,67.2,40.0,29.70,NNW,334,0.0,0.0,37,0.00,,,0.00,WeatherCatV1.15B25,2013-04-30 06:46:00,
2013-04-29 23:51:00,67.1,40.6,29.70,NNW,334,0.0,0.0,38,0.00,,,0.00,WeatherCatV1.15B25,2013-04-30 06:51:00,
2013-04-29 23:56:00,66.8,40.4,29.70,NNW,334,0.0,0.0,38,0.00,,,0.00,WeatherCatV1.15B25,2013-04-30 06:56:00,